Main page
METAR-TAF:

METAR-TAF

Airports :

Dundee Airport

Dundee, Scotland

latitude: 56-27N, longitude: 003-01W, elevation: 4 m

Current weather observation

The report was made 9 hours and 56 minutes ago, at 18:50 UTC
Wind 13 kt from the West/Southwest
Temperature 20°C
Humidity 68%
Pressure 1011 hPa
Visibility 10 km or more
Few clouds at a height of 4000 ft

METAR: EGPN 211850Z 25013KT 9999 FEW040 20/14 Q1011

Time: 05:46 (04:46 UTC)

Forecast

The report was made 11 hours and 49 minutes ago, at 16:57 UTC
Forecast valid from 21 at 18 UTC to 21 at 20 UTC
Wind 10 kt from the West/Southwest
Visibility 10 km or more
Few clouds at a height of 4000 ft

TAF: EGPN 211657Z 2118/2120 25010KT 9999 FEW040

Weather observations and forecasts of more than 4000 airports (METAR and TAF reports).

The available stations are represented by yellow and red dots on the map.

Hover mouse over dot to see the name of the station.

Then click to see weather observations and forecasts.

To change the map : click on the green buttons with a black cross to zoom in, on the green button with a dash to zoom out, or on the green arrows for adjacent maps.


METAR-TAF: